Time;durP1;ratioP1;P1;durP2;ratioP2;P2;SDS_P1;SDS_P2;PMS_P1;PMS_P2;Temp;Humidity;BMP_temperature;BMP_pressure;BME280_temperature;BME280_humidity;BME280_pressure;Samples;Min_cycle;Max_cycle;Signal;HPM_P1;HPM_P2
2023/04/30 00:01:57;;;;;;;18.07;8.27;;;5.80;99.90;;;;;;4956775;28;20406;-82
2023/04/30 00:04:22;;;;;;;18.70;9.20;;;5.70;99.90;;;;;;4952193;29;20045;-83
2023/04/30 00:06:48;;;;;;;16.83;9.03;;;5.70;99.90;;;;;;4938552;29;20051;-82
2023/04/30 00:09:14;;;;;;;19.10;9.53;;;5.70;99.90;;;;;;4942592;29;20046;-83
2023/04/30 00:11:39;;;;;;;16.40;8.37;;;5.70;99.90;;;;;;4948436;29;20105;-82
2023/04/30 00:14:05;;;;;;;21.03;9.87;;;5.60;99.90;;;;;;4939388;29;20079;-82
2023/04/30 00:16:31;;;;;;;18.83;9.43;;;6.80;99.90;;;;;;4955206;29;20595;-82
2023/04/30 00:18:56;;;;;;;20.40;9.80;;;5.50;99.90;;;;;;4938621;29;20547;-83
2023/04/30 00:21:22;;;;;;;19.03;9.70;;;5.50;99.90;;;;;;4955543;29;20043;-83
2023/04/30 00:23:47;;;;;;;18.40;9.53;;;5.50;99.90;;;;;;4955126;29;20039;-83
2023/04/30 00:26:14;;;;;;;20.57;9.70;;;5.50;99.90;;;;;;4937641;29;20492;-83
2023/04/30 00:28:40;;;;;;;21.67;8.97;;;5.40;99.90;;;;;;4938394;29;20078;-83
2023/04/30 00:31:08;;;;;;;20.47;10.30;;;5.40;99.90;;;;;;4954814;29;20048;-83
2023/04/30 00:33:34;;;;;;;17.87;9.73;;;5.40;99.90;;;;;;4955935;29;20095;-82
2023/04/30 00:36:00;;;;;;;19.93;9.53;;;5.40;99.90;;;;;;4943608;29;20547;-84
2023/04/30 00:38:25;;;;;;;21.27;11.07;;;5.40;99.90;;;;;;4939498;29;20063;-83
2023/04/30 00:40:52;;;;;;;21.83;10.63;;;5.30;99.90;;;;;;4938610;29;20380;-83
2023/04/30 00:43:17;;;;;;;21.10;11.00;;;5.30;99.90;;;;;;4944929;29;20051;-83
2023/04/30 00:45:43;;;;;;;19.77;11.00;;;6.50;99.90;;;;;;4938551;29;20050;-83
2023/04/30 00:48:09;;;;;;;21.23;10.37;;;5.30;99.90;;;;;;4955332;28;20447;-83
2023/04/30 00:50:35;;;;;;;19.20;10.30;;;5.30;99.90;;;;;;4962848;23;20078;-84
2023/04/30 00:53:01;;;;;;;21.37;10.20;;;5.30;99.90;;;;;;4956839;28;20058;-83
2023/04/30 00:55:27;;;;;;;18.40;9.43;;;5.20;99.90;;;;;;4974593;28;20130;-83
2023/04/30 00:57:53;;;;;;;19.83;10.20;;;5.20;99.90;;;;;;4956326;28;20042;-83
2023/04/30 01:00:19;;;;;;;17.80;9.50;;;5.20;99.90;;;;;;4972720;28;20070;-83
2023/04/30 01:02:45;;;;;;;18.33;9.73;;;5.10;99.90;;;;;;4956915;28;20418;-83
2023/04/30 01:05:10;;;;;;;19.77;10.20;;;5.10;99.90;;;;;;4955891;28;20046;-83
2023/04/30 01:07:46;;;;;;;20.93;10.70;;;6.20;99.90;;;;;;4957638;28;20126;-83
2023/04/30 01:10:13;;;;;;;18.90;9.83;;;5.00;99.90;;;;;;4973181;28;20053;-83
2023/04/30 01:12:46;;;;;;;21.77;10.83;;;4.90;99.90;;;;;;4974099;28;20043;-83
2023/04/30 01:15:39;;;;;;;22.63;10.63;;;4.90;99.90;;;;;;4956933;28;20050;-83
2023/04/30 01:18:19;;;;;;;19.80;10.47;;;4.90;99.90;;;;;;4973441;28;20054;-83
2023/04/30 01:20:52;;;;;;;18.67;9.97;;;4.80;99.90;;;;;;4974227;28;20392;-84
2023/04/30 01:23:40;;;;;;;24.40;10.53;;;4.80;99.90;;;;;;4974147;28;20034;-83
2023/04/30 01:26:19;;;;;;;19.77;9.73;;;4.80;99.90;;;;;;4972297;28;20050;-83
2023/04/30 01:28:46;;;;;;;20.80;10.80;;;4.70;99.90;;;;;;4956807;28;20078;-83
2023/04/30 01:31:17;;;;;;;21.60;10.20;;;4.70;99.90;;;;;;4974424;28;20042;-83
2023/04/30 01:33:43;;;;;;;19.97;10.80;;;4.70;99.90;;;;;;4956174;28;20487;-83
2023/04/30 01:36:50;;;;;;;17.87;9.07;;;5.20;99.90;;;;;;4968656;28;20043;-83
2023/04/30 01:39:35;;;;;;;21.03;9.83;;;4.60;99.90;;;;;;4985153;28;20499;-83
2023/04/30 01:42:06;;;;;;;18.87;9.93;;;4.50;99.90;;;;;;4962549;29;20048;-82
2023/04/30 01:45:04;;;;;;;21.63;10.37;;;4.50;99.90;;;;;;4954257;28;20070;-83
2023/04/30 01:47:49;;;;;;;19.73;10.57;;;4.50;99.90;;;;;;4931350;29;20062;-83
2023/04/30 01:50:36;;;;;;;23.53;10.50;;;4.50;99.90;;;;;;4956214;28;20050;-83
2023/04/30 01:53:06;;;;;;;20.17;10.93;;;4.40;99.90;;;;;;4956322;28;20110;-82
2023/04/30 01:55:44;;;;;;;20.07;10.87;;;4.40;99.90;;;;;;4955446;28;20047;-82
2023/04/30 01:58:12;;;;;;;21.13;10.50;;;4.30;99.90;;;;;;4956378;28;20054;-83
2023/04/30 02:00:38;;;;;;;18.57;10.50;;;4.30;99.90;;;;;;4972381;28;20114;-82
2023/04/30 02:03:03;;;;;;;23.00;10.60;;;4.30;99.90;;;;;;4973886;28;20131;-83
2023/04/30 02:05:29;;;;;;;20.30;10.63;;;4.30;99.90;;;;;;4979668;28;20034;-83
2023/04/30 02:07:55;;;;;;;17.80;10.53;;;5.20;99.90;;;;;;4974844;28;20082;-83
2023/04/30 02:10:22;;;;;;;18.70;9.50;;;4.20;99.90;;;;;;4974814;28;20125;-83
2023/04/30 02:12:48;;;;;;;20.67;10.37;;;4.20;99.90;;;;;;4963077;28;20126;-83
2023/04/30 02:15:14;;;;;;;19.00;10.17;;;4.20;99.90;;;;;;4977241;28;20129;-83
2023/04/30 02:17:41;;;;;;;20.23;10.77;;;4.10;99.90;;;;;;4960301;28;20046;-83
2023/04/30 02:20:10;;;;;;;20.30;10.80;;;4.10;99.90;;;;;;4977111;28;20093;-83
2023/04/30 02:22:36;;;;;;;20.33;10.37;;;4.10;99.90;;;;;;4975173;28;20050;-83
2023/04/30 02:25:02;;;;;;;18.93;10.57;;;4.00;99.90;;;;;;4977063;28;20399;-83
2023/04/30 02:27:30;;;;;;;21.97;11.20;;;4.00;99.90;;;;;;4959689;28;20043;-83
2023/04/30 02:29:56;;;;;;;21.73;10.67;;;4.10;99.90;;;;;;4958598;28;20047;-83
2023/04/30 02:32:22;;;;;;;20.13;10.43;;;4.00;99.90;;;;;;4959705;28;20031;-83
2023/04/30 02:34:48;;;;;;;23.47;11.10;;;4.00;99.90;;;;;;4977006;28;20057;-83
2023/04/30 02:37:13;;;;;;;22.93;11.63;;;4.00;99.90;;;;;;4976368;28;20122;-83
2023/04/30 02:39:40;;;;;;;22.90;10.70;;;4.20;99.90;;;;;;4959753;28;20451;-83
2023/04/30 02:42:06;;;;;;;21.50;11.50;;;3.90;99.90;;;;;;4977117;28;20109;-82
2023/04/30 02:44:32;;;;;;;19.90;10.53;;;3.80;99.90;;;;;;4976004;28;20042;-82
2023/04/30 02:46:58;;;;;;;20.67;11.53;;;4.90;99.90;;;;;;4959008;28;20053;-83
2023/04/30 02:49:25;;;;;;;21.07;11.30;;;3.80;99.90;;;;;;4959156;28;20051;-82
2023/04/30 02:51:51;;;;;;;23.23;11.30;;;3.80;99.90;;;;;;4975039;28;20055;-83
2023/04/30 02:54:17;;;;;;;18.60;10.37;;;3.80;99.90;;;;;;4958917;28;20138;-83
2023/04/30 02:56:43;;;;;;;21.07;11.57;;;3.70;99.90;;;;;;4975871;28;20058;-83
2023/04/30 02:59:11;;;;;;;20.53;11.20;;;3.70;99.90;;;;;;4976226;28;20506;-83
2023/04/30 03:01:37;;;;;;;20.40;10.87;;;3.60;99.90;;;;;;4976817;28;20047;-83
2023/04/30 03:04:03;;;;;;;20.90;11.50;;;3.60;99.90;;;;;;4957884;28;20376;-83
2023/04/30 03:06:30;;;;;;;21.43;11.60;;;3.60;99.90;;;;;;4976483;28;20395;-83
2023/04/30 03:08:56;;;;;;;24.63;11.63;;;3.60;99.90;;;;;;4976188;28;20047;-83
2023/04/30 03:11:21;;;;;;;22.50;11.83;;;4.40;99.90;;;;;;4985494;28;20044;-83
2023/04/30 03:13:50;;;;;;;26.10;12.40;;;3.50;99.90;;;;;;4994468;28;20050;-83
2023/04/30 03:16:20;;;;;;;22.87;11.97;;;3.50;99.90;;;;;;4977816;28;20065;-83
2023/04/30 03:18:48;;;;;;;23.73;12.17;;;3.50;99.90;;;;;;4993553;28;20050;-83
2023/04/30 03:21:14;;;;;;;23.80;11.60;;;3.40;99.90;;;;;;4995288;28;20133;-83
2023/04/30 03:23:40;;;;;;;19.87;11.00;;;3.40;99.90;;;;;;4977734;28;20109;-83
2023/04/30 03:26:07;;;;;;;22.60;11.77;;;3.40;99.90;;;;;;4968499;28;20051;-83
2023/04/30 03:28:33;;;;;;;23.47;10.60;;;3.30;99.90;;;;;;4975838;28;20055;-83
2023/04/30 03:30:59;;;;;;;19.77;10.83;;;3.30;99.90;;;;;;4958166;28;20043;-83
2023/04/30 03:33:25;;;;;;;22.20;11.17;;;3.30;99.90;;;;;;4975411;28;20047;-83
2023/04/30 03:35:50;;;;;;;21.17;11.37;;;3.30;99.90;;;;;;4966301;28;20061;-83
2023/04/30 03:38:16;;;;;;;22.23;11.53;;;3.30;99.90;;;;;;4975366;28;20094;-83
2023/04/30 03:40:42;;;;;;;22.93;11.67;;;3.30;99.90;;;;;;4975085;28;20049;-82
2023/04/30 03:43:08;;;;;;;20.20;11.10;;;3.30;99.90;;;;;;4983126;28;20054;-82
2023/04/30 03:45:33;;;;;;;20.27;11.73;;;3.30;99.90;;;;;;4958539;28;20053;-83
2023/04/30 03:47:59;;;;;;;20.27;11.33;;;3.20;99.90;;;;;;4973657;28;20181;-83
2023/04/30 03:50:25;;;;;;;23.83;11.07;;;3.20;99.90;;;;;;4975650;28;20049;-82
2023/04/30 03:52:50;;;;;;;24.33;12.53;;;3.20;99.90;;;;;;4974555;28;20063;-83
2023/04/30 03:55:17;;;;;;;21.33;11.10;;;3.20;99.90;;;;;;4975498;28;20458;-83
2023/04/30 03:57:43;;;;;;;21.53;11.43;;;3.20;99.90;;;;;;4975675;28;20039;-83
2023/04/30 04:00:09;;;;;;;21.83;11.40;;;3.20;99.90;;;;;;4974441;28;20043;-82
2023/04/30 04:02:36;;;;;;;22.43;11.60;;;3.20;99.90;;;;;;4975363;28;20109;-83
2023/04/30 04:05:03;;;;;;;25.23;11.40;;;3.10;99.90;;;;;;4956461;28;20419;-83
2023/04/30 04:07:28;;;;;;;21.00;11.03;;;3.10;99.90;;;;;;4956936;28;20069;-83
2023/04/30 04:09:54;;;;;;;20.43;11.33;;;3.10;99.90;;;;;;4975396;28;20480;-83
2023/04/30 04:12:20;;;;;;;25.03;12.80;;;2.40;99.90;;;;;;4974098;28;20065;-83
2023/04/30 04:14:46;;;;;;;21.63;12.03;;;3.10;99.90;;;;;;4993815;28;20172;-83
2023/04/30 04:17:11;;;;;;;22.90;11.33;;;3.10;99.90;;;;;;4976395;28;20074;-83
2023/04/30 04:19:37;;;;;;;25.40;12.93;;;3.10;99.90;;;;;;4993443;28;20105;-83
2023/04/30 04:22:03;;;;;;;21.67;11.60;;;3.10;99.90;;;;;;4975497;28;20561;-83
2023/04/30 04:24:29;;;;;;;21.70;11.53;;;3.10;99.90;;;;;;4994369;28;20042;-83
2023/04/30 04:26:55;;;;;;;24.77;12.30;;;3.10;99.90;;;;;;4976317;28;20132;-83
2023/04/30 04:29:20;;;;;;;21.17;12.20;;;3.20;99.90;;;;;;4976017;28;20050;-83
2023/04/30 04:31:47;;;;;;;20.53;11.40;;;3.10;99.90;;;;;;4994378;28;20090;-83
2023/04/30 04:34:13;;;;;;;23.77;12.57;;;3.20;99.90;;;;;;4994222;28;20121;-83
2023/04/30 04:36:39;;;;;;;21.90;12.00;;;3.20;99.90;;;;;;4993072;28;20185;-83
2023/04/30 04:39:05;;;;;;;23.83;12.07;;;3.70;99.90;;;;;;5008464;28;20125;-82
2023/04/30 04:41:31;;;;;;;27.97;12.47;;;3.30;99.90;;;;;;5004974;28;20116;-83
2023/04/30 04:43:58;;;;;;;23.33;12.60;;;3.40;99.90;;;;;;4993036;28;20438;-83
2023/04/30 04:46:24;;;;;;;25.73;12.57;;;3.80;99.90;;;;;;4993808;28;20042;-83
2023/04/30 04:48:50;;;;;;;24.20;13.33;;;3.60;99.90;;;;;;4976549;28;20089;-83
2023/04/30 04:51:16;;;;;;;22.70;13.07;;;3.70;99.90;;;;;;4992347;28;20122;-83
2023/04/30 04:53:42;;;;;;;24.27;13.40;;;3.80;99.90;;;;;;4992707;28;20081;-83
2023/04/30 04:56:07;;;;;;;25.27;14.10;;;4.00;99.90;;;;;;4990769;28;20038;-83
2023/04/30 04:58:34;;;;;;;26.33;14.60;;;4.10;99.90;;;;;;4993403;28;20034;-83
2023/04/30 05:00:59;;;;;;;24.07;13.40;;;4.30;99.90;;;;;;4992954;28;20050;-83
2023/04/30 05:03:30;;;;;;;24.70;13.53;;;4.30;99.90;;;;;;4993510;28;20149;-83
2023/04/30 05:05:55;;;;;;;23.67;13.20;;;4.50;99.90;;;;;;4989636;28;20046;-83
2023/04/30 05:08:21;;;;;;;24.57;13.47;;;4.60;99.90;;;;;;4972858;28;20061;-82
2023/04/30 05:10:47;;;;;;;23.93;13.40;;;4.80;99.90;;;;;;4974316;28;20039;-83
2023/04/30 05:13:13;;;;;;;22.10;12.60;;;4.90;99.90;;;;;;4961992;28;20071;-83
2023/04/30 05:15:38;;;;;;;24.50;12.83;;;5.00;99.90;;;;;;4973891;28;20436;-83
2023/04/30 05:18:04;;;;;;;25.07;12.37;;;5.70;99.90;;;;;;4971488;28;20503;-83
2023/04/30 05:20:30;;;;;;;20.17;11.70;;;5.10;99.90;;;;;;4956105;28;20073;-83
2023/04/30 05:22:55;;;;;;;24.60;13.00;;;5.20;99.90;;;;;;4955371;28;20047;-83
2023/04/30 05:25:21;;;;;;;23.50;11.67;;;5.20;99.90;;;;;;4955392;28;20045;-83
2023/04/30 05:27:46;;;;;;;21.47;11.33;;;5.30;99.90;;;;;;4972175;28;20398;-84
2023/04/30 05:30:14;;;;;;;21.90;10.90;;;5.40;99.90;;;;;;4955885;28;20050;-83
2023/04/30 05:32:40;;;;;;;22.67;10.93;;;5.40;99.90;;;;;;4972472;28;20403;-83
2023/04/30 05:35:06;;;;;;;20.20;9.80;;;5.40;99.90;;;;;;4971757;28;20399;-83
2023/04/30 05:37:32;;;;;;;21.00;9.90;;;5.40;99.90;;;;;;4955697;28;20043;-83
2023/04/30 05:39:58;;;;;;;18.00;9.50;;;5.40;99.90;;;;;;4954929;28;20057;-84
2023/04/30 05:42:23;;;;;;;18.80;8.83;;;5.40;99.90;;;;;;4955870;28;20101;-83
2023/04/30 05:44:49;;;;;;;16.87;8.80;;;5.50;99.90;;;;;;4973707;28;20050;-84
2023/04/30 05:47:15;;;;;;;18.40;8.60;;;6.70;99.90;;;;;;4954777;28;20051;-83
2023/04/30 05:49:40;;;;;;;18.20;7.53;;;5.60;99.90;;;;;;4976638;28;20050;-83
2023/04/30 05:52:06;;;;;;;16.67;7.80;;;5.70;99.90;;;;;;4939430;28;1053634;-83
2023/04/30 05:54:32;;;;;;;16.50;7.63;;;5.70;99.90;;;;;;4977321;28;20133;-84
2023/04/30 05:56:57;;;;;;;16.00;7.40;;;5.70;99.90;;;;;;4985117;28;20077;-83
2023/04/30 05:59:23;;;;;;;17.47;7.77;;;5.80;99.90;;;;;;4996558;28;20039;-83
2023/04/30 06:01:48;;;;;;;17.63;7.57;;;5.80;99.90;;;;;;4995584;28;20057;-83
2023/04/30 06:04:14;;;;;;;14.57;7.03;;;5.90;99.90;;;;;;4996691;28;20083;-84
2023/04/30 06:06:40;;;;;;;17.37;7.73;;;5.90;99.90;;;;;;4996082;28;20752;-83
2023/04/30 06:09:06;;;;;;;15.70;7.10;;;6.50;99.90;;;;;;4979123;28;20054;-83
2023/04/30 06:11:32;;;;;;;16.87;7.33;;;6.00;99.90;;;;;;4995482;28;20089;-83
2023/04/30 06:13:58;;;;;;;15.87;7.43;;;7.10;99.90;;;;;;4996096;28;20038;-83
2023/04/30 06:16:23;;;;;;;16.37;7.40;;;6.70;99.90;;;;;;4996322;28;20039;-83
2023/04/30 06:18:49;;;;;;;14.97;7.33;;;7.20;99.90;;;;;;4995476;28;20048;-83
2023/04/30 06:21:15;;;;;;;18.27;7.17;;;6.30;99.90;;;;;;4994336;28;20053;-83
2023/04/30 06:23:44;;;;;;;15.63;6.77;;;6.40;99.90;;;;;;5088760;23;20041;-83
2023/04/30 06:26:13;;;;;;;14.97;6.20;;;7.20;99.90;;;;;;4978864;28;20050;-83
2023/04/30 06:28:39;;;;;;;13.47;6.37;;;6.20;99.90;;;;;;5015541;28;20497;-84
2023/04/30 06:31:05;;;;;;;17.87;5.97;;;6.50;99.90;;;;;;4998369;28;20133;-84
2023/04/30 06:33:30;;;;;;;17.13;5.70;;;6.70;99.90;;;;;;4999006;28;20038;-84
2023/04/30 06:35:57;;;;;;;14.83;5.90;;;6.80;99.90;;;;;;5004122;28;20119;-83
2023/04/30 06:38:22;;;;;;;16.15;4.97;;;6.90;99.90;;;;;;5017105;28;20041;-82
2023/04/30 06:40:58;;;;;;;12.67;5.10;;;7.00;99.90;;;;;;4998028;28;20050;-82
2023/04/30 06:43:23;;;;;;;14.27;4.50;;;8.10;99.90;;;;;;5025721;28;20049;-81
2023/04/30 06:45:49;;;;;;;16.80;4.68;;;7.20;99.90;;;;;;5018672;28;20113;-81
2023/04/30 06:48:15;;;;;;;12.40;3.75;;;7.20;99.90;;;;;;4997519;28;20072;-81
2023/04/30 06:50:43;;;;;;;10.95;3.60;;;7.40;99.90;;;;;;5014498;28;20054;-81
2023/04/30 06:53:13;;;;;;;15.20;4.20;;;7.40;99.90;;;;;;4997663;28;20050;-83
2023/04/30 06:55:40;;;;;;;12.05;3.53;;;7.50;99.90;;;;;;5015294;28;20077;-81
2023/04/30 06:58:05;;;;;;;10.68;3.40;;;7.60;99.90;;;;;;4997023;28;20045;-82
2023/04/30 07:00:31;;;;;;;12.05;4.07;;;8.60;99.90;;;;;;5015951;28;20056;-82
2023/04/30 07:03:03;;;;;;;12.48;3.42;;;7.90;99.90;;;;;;4996428;28;20041;-82
2023/04/30 07:05:29;;;;;;;10.77;3.53;;;8.10;99.90;;;;;;5015879;28;20053;-83
2023/04/30 07:07:56;;;;;;;10.77;3.63;;;8.20;99.90;;;;;;4990760;28;20046;-82
2023/04/30 07:10:21;;;;;;;14.10;3.50;;;8.40;99.90;;;;;;4994791;28;20057;-82
2023/04/30 07:12:47;;;;;;;14.98;4.28;;;8.40;99.90;;;;;;4978143;28;20087;-82
2023/04/30 07:15:13;;;;;;;15.20;4.25;;;8.60;99.90;;;;;;4980348;28;20406;-83
2023/04/30 07:17:40;;;;;;;15.20;3.78;;;8.70;99.90;;;;;;4977663;28;20047;-82
2023/04/30 07:20:07;;;;;;;12.55;3.53;;;8.90;99.90;;;;;;4978037;28;20065;-83
2023/04/30 07:22:33;;;;;;;12.40;4.07;;;9.10;99.90;;;;;;4995670;28;20073;-82
2023/04/30 07:24:59;;;;;;;11.98;4.07;;;9.30;99.90;;;;;;5016895;23;20047;-83
2023/04/30 07:27:28;;;;;;;13.48;3.70;;;9.40;99.90;;;;;;4953353;29;20461;-83
2023/04/30 07:29:54;;;;;;;14.48;3.92;;;9.50;99.90;;;;;;4938993;29;20039;-83
2023/04/30 07:32:21;;;;;;;17.30;4.00;;;9.70;99.90;;;;;;4938096;29;20098;-83
2023/04/30 07:34:47;;;;;;;13.95;4.20;;;9.80;99.90;;;;;;4938498;29;20043;-85
2023/04/30 07:37:15;;;;;;;13.95;3.70;;;10.20;99.90;;;;;;4939178;29;20539;-86
2023/04/30 07:39:54;;;;;;;12.50;4.00;;;9.80;99.90;;;;;;4982606;23;20494;-84
2023/04/30 07:42:21;;;;;;;17.08;3.80;;;9.90;99.90;;;;;;5007620;28;20045;-83
2023/04/30 07:44:47;;;;;;;12.20;3.33;;;10.10;99.90;;;;;;5025237;28;20107;-82
2023/04/30 07:47:14;;;;;;;11.75;3.38;;;10.50;99.90;;;;;;5010584;23;20052;-82
2023/04/30 07:49:40;;;;;;;14.18;3.70;;;10.10;99.90;;;;;;4990380;28;20051;-82
2023/04/30 07:52:09;;;;;;;13.43;3.88;;;10.10;99.90;;;;;;4973081;28;20561;-83
2023/04/30 07:54:37;;;;;;;11.38;4.57;;;10.30;99.90;;;;;;4985458;28;20049;-83
2023/04/30 07:57:21;;;;;;;13.40;4.03;;;10.40;99.90;;;;;;4951142;28;20080;-83
2023/04/30 07:59:56;;;;;;;13.00;4.50;;;10.30;99.90;;;;;;4960873;28;20053;-83
2023/04/30 08:02:25;;;;;;;12.95;4.18;;;10.20;99.90;;;;;;4961836;28;20042;-83
2023/04/30 08:04:53;;;;;;;15.65;4.32;;;10.20;99.90;;;;;;4995152;28;20046;-83
2023/04/30 08:07:32;;;;;;;12.35;4.47;;;10.30;99.90;;;;;;4978423;28;20482;-83
2023/04/30 08:10:07;;;;;;;13.63;3.80;;;11.50;99.90;;;;;;4977427;28;20133;-84
2023/04/30 08:13:02;;;;;;;11.55;4.18;;;10.50;99.90;;;;;;4977357;28;20042;-83
2023/04/30 08:15:28;;;;;;;12.60;4.13;;;10.70;99.90;;;;;;4981788;28;20110;-81
2023/04/30 08:18:15;;;;;;;13.60;4.20;;;10.80;99.90;;;;;;4996203;28;20494;-81
2023/04/30 08:20:53;;;;;;;12.13;3.50;;;12.30;99.90;;;;;;4994187;28;20046;-81
2023/04/30 08:23:38;;;;;;;13.70;4.00;;;11.00;99.90;;;;;;4976801;28;20489;-81
2023/04/30 08:29:56;;;;;;;14.15;3.50;;;10.40;99.90;;;;;;4957627;28;20050;-81
2023/04/30 08:32:35;;;;;;;12.02;3.67;;;11.70;99.90;;;;;;4976886;28;20047;-81
2023/04/30 08:35:18;;;;;;;12.35;3.67;;;11.20;99.90;;;;;;4993327;28;20042;-81
2023/04/30 08:37:44;;;;;;;11.13;3.35;;;10.80;99.90;;;;;;4976681;28;20046;-81
2023/04/30 08:40:11;;;;;;;13.18;3.67;;;11.70;99.90;;;;;;4976277;28;20089;-81
2023/04/30 08:42:58;;;;;;;12.60;3.70;;;11.20;99.90;;;;;;4999221;23;20393;-81
2023/04/30 08:45:25;;;;;;;11.15;4.05;;;11.80;99.90;;;;;;5035682;23;20077;-81
2023/04/30 08:47:51;;;;;;;13.70;3.60;;;11.90;99.90;;;;;;4993521;28;20498;-81
2023/04/30 08:50:17;;;;;;;10.95;3.67;;;12.10;99.90;;;;;;4979941;28;20143;-85
2023/04/30 08:52:43;;;;;;;10.10;3.10;;;11.40;99.90;;;;;;4973337;28;20042;-83
2023/04/30 08:55:09;;;;;;;10.68;3.10;;;11.60;99.90;;;;;;4975398;28;20125;-83
2023/04/30 08:57:37;;;;;;;11.27;3.10;;;11.80;99.90;;;;;;4992877;28;20117;-83
2023/04/30 09:00:05;;;;;;;11.98;3.10;;;12.10;99.90;;;;;;4992897;28;20046;-83
2023/04/30 09:02:32;;;;;;;11.68;3.20;;;12.20;99.90;;;;;;4992370;28;20042;-84
2023/04/30 09:05:12;;;;;;;9.82;2.88;;;13.20;99.90;;;;;;4976013;28;20042;-84
2023/04/30 09:07:44;;;;;;;11.88;2.90;;;12.90;99.90;;;;;;4976403;28;20133;-83
2023/04/30 09:10:40;;;;;;;10.20;2.95;;;13.40;99.90;;;;;;4993958;28;20359;-84
2023/04/30 09:13:23;;;;;;;11.85;3.00;;;12.70;99.90;;;;;;4955363;28;20487;-84
2023/04/30 09:16:20;;;;;;;12.75;3.38;;;13.30;99.90;;;;;;4958290;28;20109;-84
2023/04/30 09:18:52;;;;;;;10.00;2.80;;;13.20;99.90;;;;;;4981894;28;20038;-82
2023/04/30 09:21:55;;;;;;;12.45;3.17;;;14.40;99.90;;;;;;4956242;28;20054;-83
2023/04/30 09:28:27;;;;;;;11.35;3.10;;;13.70;99.90;;;;;;4932880;29;20096;-82
2023/04/30 09:31:18;;;;;;;12.50;3.55;;;14.90;99.90;;;;;;4920621;29;20082;-83
2023/04/30 09:33:54;;;;;;;11.32;3.15;;;14.80;99.90;;;;;;4932990;29;20624;-83
2023/04/30 09:36:35;;;;;;;10.85;3.25;;;14.80;99.90;;;;;;4917776;29;20043;-83
2023/04/30 09:39:25;;;;;;;11.65;3.10;;;14.00;99.90;;;;;;4916751;29;20212;-82
2023/04/30 09:42:24;;;;;;;12.18;3.33;;;13.80;99.90;;;;;;4933291;29;20039;-83
2023/04/30 09:44:52;;;;;;;11.95;3.15;;;13.60;99.90;;;;;;4917555;29;20204;-83
2023/04/30 09:47:21;;;;;;;9.88;2.80;;;14.10;99.90;;;;;;4973973;28;20058;-83
2023/04/30 09:49:58;;;;;;;10.85;3.25;;;15.10;99.90;;;;;;4992998;28;20526;-82
2023/04/30 09:53:23;;;;;;;11.35;3.17;;;15.20;99.90;;;;;;4975384;28;20058;-82
2023/04/30 09:55:59;;;;;;;11.55;3.40;;;14.90;99.90;;;;;;4993440;28;20544;-82
2023/04/30 09:58:50;;;;;;;11.80;3.30;;;14.80;99.90;;;;;;4975167;28;20129;-81
2023/04/30 10:01:26;;;;;;;10.65;3.55;;;14.10;99.90;;;;;;4992509;28;20074;-83
2023/04/30 10:04:04;;;;;;;10.02;3.13;;;14.30;99.90;;;;;;4975781;28;20442;-82
2023/04/30 10:06:34;;;;;;;10.00;3.00;;;14.30;99.90;;;;;;4987788;23;20051;-83
2023/04/30 10:09:04;;;;;;;10.52;3.10;;;14.40;99.90;;;;;;4952239;28;20043;-82
2023/04/30 10:11:31;;;;;;;11.50;2.95;;;14.60;99.90;;;;;;4955536;28;20054;-81
2023/04/30 10:14:03;;;;;;;10.23;3.08;;;14.70;99.90;;;;;;4972212;28;20056;-83
2023/04/30 10:16:53;;;;;;;10.00;2.75;;;14.70;99.90;;;;;;4973427;28;20042;-82
2023/04/30 10:19:23;;;;;;;8.93;2.90;;;15.10;99.90;;;;;;4955355;28;20035;-82
2023/04/30 10:21:50;;;;;;;8.70;2.78;;;16.10;99.90;;;;;;4972301;28;20039;-82
2023/04/30 10:24:19;;;;;;;8.63;2.75;;;15.70;99.90;;;;;;4972708;28;20043;-82
2023/04/30 10:26:46;;;;;;;7.80;2.50;;;15.90;99.90;;;;;;4954995;28;20105;-82
2023/04/30 10:29:14;;;;;;;9.45;2.78;;;16.70;99.90;;;;;;4972429;28;20055;-83
2023/04/30 10:31:46;;;;;;;10.82;2.80;;;16.20;99.90;;;;;;4955629;28;20051;-83
2023/04/30 10:34:37;;;;;;;11.87;2.70;;;16.00;99.90;;;;;;4970416;28;20051;-82
2023/04/30 10:37:28;;;;;;;11.70;3.05;;;15.70;99.90;;;;;;4949936;28;20079;-83
2023/04/30 10:39:55;;;;;;;9.98;3.22;;;15.70;99.90;;;;;;4976088;28;20066;-82
2023/04/30 10:42:21;;;;;;;8.85;2.83;;;15.80;99.90;;;;;;4975548;28;20047;-82
2023/04/30 10:44:47;;;;;;;9.63;2.90;;;16.80;99.90;;;;;;4976238;28;20047;-83
2023/04/30 10:47:15;;;;;;;10.18;3.00;;;16.70;99.90;;;;;;4975981;28;20047;-82
2023/04/30 10:49:47;;;;;;;8.50;3.13;;;16.30;99.90;;;;;;4974247;28;20043;-84
2023/04/30 10:52:12;;;;;;;11.00;3.38;;;16.30;99.90;;;;;;4956124;29;20039;-84
2023/04/30 10:54:39;;;;;;;9.88;3.03;;;16.20;99.90;;;;;;4953087;28;20051;-86
2023/04/30 10:57:12;;;;;;;9.38;2.97;;;16.20;99.90;;;;;;4975722;28;20050;-85
2023/04/30 10:59:43;;;;;;;10.45;2.75;;;16.10;99.90;;;;;;4959388;28;20073;-85
2023/04/30 11:02:10;;;;;;;9.10;2.90;;;16.20;99.90;;;;;;4958753;28;20050;-85
2023/04/30 11:05:07;;;;;;;9.30;2.70;;;16.20;99.90;;;;;;4959034;28;20038;-85
2023/04/30 11:07:33;;;;;;;9.98;3.28;;;16.40;99.90;;;;;;4959256;28;20094;-83
2023/04/30 11:10:01;;;;;;;9.25;3.15;;;16.60;99.90;;;;;;4979136;28;20082;-86
2023/04/30 11:12:29;;;;;;;8.73;3.25;;;16.60;99.90;;;;;;4959326;28;20054;-85
2023/04/30 11:15:28;;;;;;;7.88;2.70;;;16.90;99.90;;;;;;4958836;28;20054;-85
2023/04/30 11:18:06;;;;;;;9.65;3.00;;;17.00;99.90;;;;;;5057225;23;20509;-83
2023/04/30 11:20:32;;;;;;;9.23;3.35;;;16.80;99.90;;;;;;5015389;28;20509;-83
2023/04/30 11:27:31;;;;;;;9.65;3.20;;;17.40;99.90;;;;;;4978463;28;20066;-84
2023/04/30 11:30:20;;;;;;;9.15;3.30;;;17.00;99.90;;;;;;5007863;28;20406;-86
2023/04/30 11:57:30;;;;;;;9.75;2.95;;;16.70;99.90;;;;;;4935039;29;20047;-85
2023/04/30 12:10:54;;;;;;;7.85;2.35;;;17.70;99.90;;;;;;5109031;23;20046;-84
2023/04/30 12:14:10;;;;;;;8.57;2.80;;;17.90;99.90;;;;;;4975002;28;20455;-83
2023/04/30 12:16:59;;;;;;;8.63;2.83;;;18.10;99.90;;;;;;4955746;29;20130;-84
2023/04/30 12:19:33;;;;;;;8.80;2.90;;;18.10;99.90;;;;;;4944588;28;20366;-83
2023/04/30 12:21:59;;;;;;;8.98;2.85;;;18.00;99.90;;;;;;4957679;28;20065;-83
2023/04/30 12:24:26;;;;;;;9.02;3.03;;;18.10;99.90;;;;;;4974743;28;20038;-83
2023/04/30 12:26:52;;;;;;;8.90;2.97;;;18.00;99.90;;;;;;4956945;28;20073;-85
2023/04/30 12:29:18;;;;;;;9.85;2.90;;;18.00;99.90;;;;;;4957291;28;20097;-83
2023/04/30 12:31:47;;;;;;;8.80;2.80;;;18.20;99.90;;;;;;4957845;28;20050;-83
2023/04/30 12:34:14;;;;;;;10.82;3.10;;;18.40;99.90;;;;;;4975226;28;20039;-84
2023/04/30 12:36:46;;;;;;;8.30;2.80;;;18.90;99.90;;;;;;4958200;28;20039;-85
2023/04/30 12:39:14;;;;;;;7.60;3.05;;;18.70;99.90;;;;;;4959702;28;20050;-84
2023/04/30 12:41:45;;;;;;;7.40;2.67;;;18.80;99.90;;;;;;4957992;28;20097;-85
2023/04/30 12:44:17;;;;;;;9.13;2.50;;;18.90;99.90;;;;;;4974156;28;20034;-84
2023/04/30 12:46:44;;;;;;;8.15;2.53;;;19.10;99.60;;;;;;4977679;28;20050;-85
2023/04/30 12:49:10;;;;;;;8.82;2.70;;;19.20;99.90;;;;;;4956762;28;20089;-84
2023/04/30 12:51:39;;;;;;;8.60;2.70;;;19.20;99.80;;;;;;4974384;28;20138;-85
2023/04/30 12:54:04;;;;;;;8.75;2.88;;;19.20;99.60;;;;;;4957275;28;20112;-85
2023/04/30 12:56:32;;;;;;;8.02;2.80;;;19.20;99.50;;;;;;4955918;28;20556;-84
2023/04/30 13:03:28;;;;;;;10.30;2.80;;;19.30;97.70;;;;;;4895304;29;20042;-84
2023/04/30 13:09:51;;;;;;;8.45;2.42;;;19.10;98.00;;;;;;4973516;28;20065;-84
2023/04/30 13:16:31;;;;;;;10.68;2.92;;;19.60;97.80;;;;;;4955126;28;20051;-85
2023/04/30 13:18:57;;;;;;;8.20;2.78;;;19.30;97.80;;;;;;4892240;28;20051;-85
2023/04/30 13:21:29;;;;;;;8.02;2.45;;;19.60;98.20;;;;;;4956997;28;20403;-84
2023/04/30 13:23:57;;;;;;;10.23;2.92;;;19.60;97.60;;;;;;4973682;28;20069;-85
2023/04/30 13:26:35;;;;;;;10.13;2.63;;;19.60;97.30;;;;;;4956700;28;20038;-85
2023/04/30 13:29:10;;;;;;;7.90;2.63;;;19.70;97.40;;;;;;4956623;28;20057;-85
2023/04/30 13:31:36;;;;;;;9.07;2.63;;;20.20;97.20;;;;;;4953260;28;20043;-85
2023/04/30 13:34:29;;;;;;;8.25;2.63;;;19.60;97.50;;;;;;4953317;29;20519;-85
2023/04/30 13:36:55;;;;;;;9.23;2.70;;;19.80;96.40;;;;;;4953756;28;20550;-86
2023/04/30 13:39:30;;;;;;;8.10;2.50;;;19.90;97.60;;;;;;4955266;28;20043;-85
2023/04/30 13:41:55;;;;;;;7.95;2.53;;;19.90;96.80;;;;;;4956738;28;20097;-84
2023/04/30 13:44:51;;;;;;;8.68;3.08;;;20.70;97.30;;;;;;4956033;28;20039;-84
2023/04/30 13:47:28;;;;;;;9.05;2.67;;;20.20;96.80;;;;;;4973687;28;20499;-84
2023/04/30 13:50:01;;;;;;;8.68;2.53;;;20.30;97.00;;;;;;4973474;28;20043;-84
2023/04/30 13:52:30;;;;;;;8.98;2.78;;;20.30;96.60;;;;;;4939964;28;20403;-85
2023/04/30 13:54:59;;;;;;;7.50;2.30;;;20.20;96.70;;;;;;4973721;28;20039;-84
2023/04/30 13:57:36;;;;;;;6.70;2.40;;;20.30;96.40;;;;;;4973929;28;20078;-84